sensor_id;sensor_type;location;lat;lon;timestamp;P1;durP1;ratioP1;P2;durP2;ratioP2
31438;SDS011;18062;48.872;9.220;2023-10-13T00:00:21;6.37;;;4.87;;
31438;SDS011;18062;48.872;9.220;2023-10-13T00:02:56;6.77;;;5.10;;
31438;SDS011;18062;48.872;9.220;2023-10-13T00:05:25;8.40;;;5.40;;
31438;SDS011;18062;48.872;9.220;2023-10-13T00:07:51;7.63;;;4.63;;
31438;SDS011;18062;48.872;9.220;2023-10-13T00:10:17;5.77;;;4.27;;
31438;SDS011;18062;48.872;9.220;2023-10-13T00:12:44;4.90;;;4.13;;
31438;SDS011;18062;48.872;9.220;2023-10-13T00:15:16;5.43;;;4.23;;
31438;SDS011;18062;48.872;9.220;2023-10-13T00:17:42;5.90;;;4.37;;
31438;SDS011;18062;48.872;9.220;2023-10-13T00:20:09;5.43;;;4.40;;
31438;SDS011;18062;48.872;9.220;2023-10-13T00:22:41;7.63;;;4.90;;
31438;SDS011;18062;48.872;9.220;2023-10-13T00:25:09;7.53;;;4.90;;
31438;SDS011;18062;48.872;9.220;2023-10-13T00:27:44;5.70;;;4.40;;
31438;SDS011;18062;48.872;9.220;2023-10-13T00:30:10;6.87;;;4.40;;
31438;SDS011;18062;48.872;9.220;2023-10-13T00:32:42;5.13;;;4.37;;
31438;SDS011;18062;48.872;9.220;2023-10-13T00:35:12;7.07;;;4.93;;
31438;SDS011;18062;48.872;9.220;2023-10-13T00:37:50;6.30;;;4.43;;
31438;SDS011;18062;48.872;9.220;2023-10-13T00:40:18;5.87;;;4.93;;
31438;SDS011;18062;48.872;9.220;2023-10-13T00:43:10;9.37;;;5.00;;
31438;SDS011;18062;48.872;9.220;2023-10-13T00:45:52;6.37;;;5.30;;
31438;SDS011;18062;48.872;9.220;2023-10-13T00:48:25;6.40;;;4.97;;
31438;SDS011;18062;48.872;9.220;2023-10-13T00:50:59;6.37;;;5.53;;
31438;SDS011;18062;48.872;9.220;2023-10-13T00:53:28;8.97;;;5.40;;
31438;SDS011;18062;48.872;9.220;2023-10-13T00:55:54;10.53;;;5.90;;
31438;SDS011;18062;48.872;9.220;2023-10-13T00:58:30;6.67;;;5.20;;
31438;SDS011;18062;48.872;9.220;2023-10-13T01:00:58;7.73;;;5.33;;
31438;SDS011;18062;48.872;9.220;2023-10-13T01:03:42;8.77;;;6.50;;
31438;SDS011;18062;48.872;9.220;2023-10-13T01:06:09;7.67;;;5.37;;
31438;SDS011;18062;48.872;9.220;2023-10-13T01:08:37;7.10;;;5.30;;
31438;SDS011;18062;48.872;9.220;2023-10-13T01:11:03;8.03;;;5.93;;
31438;SDS011;18062;48.872;9.220;2023-10-13T01:13:32;7.93;;;5.50;;
31438;SDS011;18062;48.872;9.220;2023-10-13T01:16:01;8.17;;;5.97;;
31438;SDS011;18062;48.872;9.220;2023-10-13T01:18:27;8.37;;;5.30;;
31438;SDS011;18062;48.872;9.220;2023-10-13T01:20:54;8.00;;;5.40;;
31438;SDS011;18062;48.872;9.220;2023-10-13T01:23:24;7.47;;;5.87;;
31438;SDS011;18062;48.872;9.220;2023-10-13T01:25:50;9.93;;;5.70;;
31438;SDS011;18062;48.872;9.220;2023-10-13T01:28:18;8.87;;;5.57;;
31438;SDS011;18062;48.872;9.220;2023-10-13T01:30:46;8.43;;;5.97;;
31438;SDS011;18062;48.872;9.220;2023-10-13T01:33:15;9.47;;;5.50;;
31438;SDS011;18062;48.872;9.220;2023-10-13T01:35:41;8.43;;;5.80;;
31438;SDS011;18062;48.872;9.220;2023-10-13T01:38:12;5.63;;;4.80;;
31438;SDS011;18062;48.872;9.220;2023-10-13T01:40:38;9.57;;;5.43;;
31438;SDS011;18062;48.872;9.220;2023-10-13T01:43:04;6.73;;;4.87;;
31438;SDS011;18062;48.872;9.220;2023-10-13T01:45:36;9.80;;;5.40;;
31438;SDS011;18062;48.872;9.220;2023-10-13T01:48:04;8.73;;;5.53;;
31438;SDS011;18062;48.872;9.220;2023-10-13T01:50:32;7.13;;;5.80;;
31438;SDS011;18062;48.872;9.220;2023-10-13T01:52:58;7.83;;;5.70;;
31438;SDS011;18062;48.872;9.220;2023-10-13T01:55:43;8.17;;;5.70;;
31438;SDS011;18062;48.872;9.220;2023-10-13T01:58:12;9.47;;;5.97;;
31438;SDS011;18062;48.872;9.220;2023-10-13T02:00:42;9.53;;;5.63;;
31438;SDS011;18062;48.872;9.220;2023-10-13T02:03:09;8.03;;;5.43;;
31438;SDS011;18062;48.872;9.220;2023-10-13T02:05:40;12.17;;;5.70;;
31438;SDS011;18062;48.872;9.220;2023-10-13T02:08:11;6.73;;;5.10;;
31438;SDS011;18062;48.872;9.220;2023-10-13T02:10:44;10.37;;;5.93;;
31438;SDS011;18062;48.872;9.220;2023-10-13T02:13:12;7.63;;;5.63;;
31438;SDS011;18062;48.872;9.220;2023-10-13T02:15:42;8.90;;;6.17;;
31438;SDS011;18062;48.872;9.220;2023-10-13T02:18:09;6.93;;;5.63;;
31438;SDS011;18062;48.872;9.220;2023-10-13T02:20:35;9.23;;;5.73;;
31438;SDS011;18062;48.872;9.220;2023-10-13T02:23:08;11.17;;;6.37;;
31438;SDS011;18062;48.872;9.220;2023-10-13T02:25:36;8.93;;;5.53;;
31438;SDS011;18062;48.872;9.220;2023-10-13T02:28:08;6.80;;;5.37;;
31438;SDS011;18062;48.872;9.220;2023-10-13T02:30:46;8.60;;;5.93;;
31438;SDS011;18062;48.872;9.220;2023-10-13T02:33:16;9.03;;;6.27;;
31438;SDS011;18062;48.872;9.220;2023-10-13T02:35:58;8.90;;;6.00;;
31438;SDS011;18062;48.872;9.220;2023-10-13T02:38:24;8.30;;;5.63;;
31438;SDS011;18062;48.872;9.220;2023-10-13T02:41:11;11.67;;;5.90;;
31438;SDS011;18062;48.872;9.220;2023-10-13T02:43:37;11.17;;;6.00;;
31438;SDS011;18062;48.872;9.220;2023-10-13T02:46:04;7.93;;;5.77;;
31438;SDS011;18062;48.872;9.220;2023-10-13T02:48:30;7.17;;;5.73;;
31438;SDS011;18062;48.872;9.220;2023-10-13T02:51:05;11.77;;;5.50;;
31438;SDS011;18062;48.872;9.220;2023-10-13T02:53:40;9.93;;;6.03;;
31438;SDS011;18062;48.872;9.220;2023-10-13T02:56:07;9.97;;;5.73;;
31438;SDS011;18062;48.872;9.220;2023-10-13T02:58:33;7.90;;;5.70;;
31438;SDS011;18062;48.872;9.220;2023-10-13T03:01:08;7.40;;;4.83;;
31438;SDS011;18062;48.872;9.220;2023-10-13T03:03:45;8.20;;;5.70;;
31438;SDS011;18062;48.872;9.220;2023-10-13T03:06:23;8.23;;;4.77;;
31438;SDS011;18062;48.872;9.220;2023-10-13T03:08:57;13.60;;;5.67;;
31438;SDS011;18062;48.872;9.220;2023-10-13T03:11:25;10.07;;;5.63;;
31438;SDS011;18062;48.872;9.220;2023-10-13T03:13:57;7.33;;;5.60;;
31438;SDS011;18062;48.872;9.220;2023-10-13T03:16:23;8.80;;;5.00;;
31438;SDS011;18062;48.872;9.220;2023-10-13T03:18:49;8.10;;;5.07;;
31438;SDS011;18062;48.872;9.220;2023-10-13T03:21:22;9.53;;;5.30;;
31438;SDS011;18062;48.872;9.220;2023-10-13T03:23:58;9.83;;;5.03;;
31438;SDS011;18062;48.872;9.220;2023-10-13T03:26:31;8.67;;;5.17;;
31438;SDS011;18062;48.872;9.220;2023-10-13T03:29:02;7.83;;;5.00;;
31438;SDS011;18062;48.872;9.220;2023-10-13T03:31:32;6.97;;;4.70;;
31438;SDS011;18062;48.872;9.220;2023-10-13T03:34:02;7.40;;;5.53;;
31438;SDS011;18062;48.872;9.220;2023-10-13T03:36:28;6.70;;;4.80;;
31438;SDS011;18062;48.872;9.220;2023-10-13T03:39:21;8.00;;;4.80;;
31438;SDS011;18062;48.872;9.220;2023-10-13T03:41:53;6.57;;;5.10;;
31438;SDS011;18062;48.872;9.220;2023-10-13T03:44:19;6.30;;;4.77;;
31438;SDS011;18062;48.872;9.220;2023-10-13T03:46:45;9.47;;;5.07;;
31438;SDS011;18062;48.872;9.220;2023-10-13T03:49:15;5.83;;;4.43;;
31438;SDS011;18062;48.872;9.220;2023-10-13T03:51:46;8.90;;;4.77;;
31438;SDS011;18062;48.872;9.220;2023-10-13T03:54:13;7.03;;;4.67;;
31438;SDS011;18062;48.872;9.220;2023-10-13T03:56:41;8.97;;;4.80;;
31438;SDS011;18062;48.872;9.220;2023-10-13T03:59:09;8.33;;;4.60;;
31438;SDS011;18062;48.872;9.220;2023-10-13T04:01:43;8.20;;;4.23;;
31438;SDS011;18062;48.872;9.220;2023-10-13T04:04:12;6.53;;;4.53;;
31438;SDS011;18062;48.872;9.220;2023-10-13T04:06:40;7.47;;;4.60;;
31438;SDS011;18062;48.872;9.220;2023-10-13T04:09:15;6.07;;;4.20;;
31438;SDS011;18062;48.872;9.220;2023-10-13T04:12:03;5.63;;;3.90;;
31438;SDS011;18062;48.872;9.220;2023-10-13T04:14:30;4.83;;;4.10;;
31438;SDS011;18062;48.872;9.220;2023-10-13T04:17:26;6.83;;;4.67;;
31438;SDS011;18062;48.872;9.220;2023-10-13T04:19:52;6.93;;;4.63;;
31438;SDS011;18062;48.872;9.220;2023-10-13T04:22:34;6.03;;;4.27;;
31438;SDS011;18062;48.872;9.220;2023-10-13T04:25:16;9.67;;;5.07;;
31438;SDS011;18062;48.872;9.220;2023-10-13T04:28:02;9.00;;;4.97;;
31438;SDS011;18062;48.872;9.220;2023-10-13T04:30:45;6.10;;;4.67;;
31438;SDS011;18062;48.872;9.220;2023-10-13T04:33:20;7.90;;;4.13;;
31438;SDS011;18062;48.872;9.220;2023-10-13T04:38:46;6.03;;;4.17;;
31438;SDS011;18062;48.872;9.220;2023-10-13T04:41:23;6.23;;;3.60;;
31438;SDS011;18062;48.872;9.220;2023-10-13T04:43:49;5.33;;;3.97;;
31438;SDS011;18062;48.872;9.220;2023-10-13T04:46:21;5.03;;;3.87;;
31438;SDS011;18062;48.872;9.220;2023-10-13T04:49:00;4.80;;;3.63;;
31438;SDS011;18062;48.872;9.220;2023-10-13T04:51:34;6.63;;;4.40;;
31438;SDS011;18062;48.872;9.220;2023-10-13T04:54:24;4.73;;;3.57;;
31438;SDS011;18062;48.872;9.220;2023-10-13T04:56:59;6.77;;;4.30;;
31438;SDS011;18062;48.872;9.220;2023-10-13T04:59:45;5.47;;;3.90;;
31438;SDS011;18062;48.872;9.220;2023-10-13T05:02:30;7.43;;;3.97;;
31438;SDS011;18062;48.872;9.220;2023-10-13T05:05:16;6.30;;;4.17;;
31438;SDS011;18062;48.872;9.220;2023-10-13T05:07:42;6.37;;;4.10;;
31438;SDS011;18062;48.872;9.220;2023-10-13T05:10:28;6.07;;;4.00;;
31438;SDS011;18062;48.872;9.220;2023-10-13T05:13:12;5.60;;;3.90;;
31438;SDS011;18062;48.872;9.220;2023-10-13T05:15:57;6.13;;;4.37;;
31438;SDS011;18062;48.872;9.220;2023-10-13T05:18:41;6.17;;;3.97;;
31438;SDS011;18062;48.872;9.220;2023-10-13T05:21:26;6.17;;;3.97;;
31438;SDS011;18062;48.872;9.220;2023-10-13T05:24:10;7.87;;;4.37;;
31438;SDS011;18062;48.872;9.220;2023-10-13T05:26:55;6.97;;;3.87;;
31438;SDS011;18062;48.872;9.220;2023-10-13T05:29:40;7.13;;;3.83;;
31438;SDS011;18062;48.872;9.220;2023-10-13T05:32:25;4.90;;;3.70;;
31438;SDS011;18062;48.872;9.220;2023-10-13T05:35:11;6.73;;;4.00;;
31438;SDS011;18062;48.872;9.220;2023-10-13T05:37:55;5.13;;;3.90;;
31438;SDS011;18062;48.872;9.220;2023-10-13T05:40:50;6.97;;;4.20;;
31438;SDS011;18062;48.872;9.220;2023-10-13T05:43:35;5.63;;;4.17;;
31438;SDS011;18062;48.872;9.220;2023-10-13T05:46:20;6.77;;;4.30;;
31438;SDS011;18062;48.872;9.220;2023-10-13T05:48:52;8.27;;;4.17;;
31438;SDS011;18062;48.872;9.220;2023-10-13T05:51:28;7.43;;;4.03;;
31438;SDS011;18062;48.872;9.220;2023-10-13T05:54:00;7.13;;;3.97;;
31438;SDS011;18062;48.872;9.220;2023-10-13T05:56:48;8.77;;;3.97;;
31438;SDS011;18062;48.872;9.220;2023-10-13T05:59:34;4.83;;;3.87;;
31438;SDS011;18062;48.872;9.220;2023-10-13T06:02:19;4.90;;;3.70;;
31438;SDS011;18062;48.872;9.220;2023-10-13T06:05:05;5.20;;;4.00;;
31438;SDS011;18062;48.872;9.220;2023-10-13T06:07:49;4.47;;;3.47;;
31438;SDS011;18062;48.872;9.220;2023-10-13T06:10:34;6.37;;;3.60;;
31438;SDS011;18062;48.872;9.220;2023-10-13T06:13:19;5.47;;;3.83;;
31438;SDS011;18062;48.872;9.220;2023-10-13T06:18:55;4.00;;;3.60;;
31438;SDS011;18062;48.872;9.220;2023-10-13T06:21:40;4.87;;;3.40;;
31438;SDS011;18062;48.872;9.220;2023-10-13T06:24:25;7.03;;;3.57;;
31438;SDS011;18062;48.872;9.220;2023-10-13T06:27:09;4.80;;;3.43;;
31438;SDS011;18062;48.872;9.220;2023-10-13T06:29:54;3.90;;;3.23;;
31438;SDS011;18062;48.872;9.220;2023-10-13T06:32:20;4.20;;;3.43;;
31438;SDS011;18062;48.872;9.220;2023-10-13T06:34:51;7.07;;;3.53;;
31438;SDS011;18062;48.872;9.220;2023-10-13T06:37:22;6.23;;;2.90;;
31438;SDS011;18062;48.872;9.220;2023-10-13T06:39:55;3.77;;;3.00;;
31438;SDS011;18062;48.872;9.220;2023-10-13T06:42:25;4.93;;;2.93;;
31438;SDS011;18062;48.872;9.220;2023-10-13T06:44:52;7.37;;;4.27;;
31438;SDS011;18062;48.872;9.220;2023-10-13T06:47:19;7.20;;;3.87;;
31438;SDS011;18062;48.872;9.220;2023-10-13T06:49:46;5.60;;;3.20;;
31438;SDS011;18062;48.872;9.220;2023-10-13T06:52:16;3.83;;;3.10;;
31438;SDS011;18062;48.872;9.220;2023-10-13T06:54:42;4.00;;;3.00;;
31438;SDS011;18062;48.872;9.220;2023-10-13T06:57:09;3.47;;;2.80;;
31438;SDS011;18062;48.872;9.220;2023-10-13T06:59:48;7.73;;;3.23;;
31438;SDS011;18062;48.872;9.220;2023-10-13T07:02:14;3.83;;;2.97;;
31438;SDS011;18062;48.872;9.220;2023-10-13T07:04:58;6.97;;;3.07;;
31438;SDS011;18062;48.872;9.220;2023-10-13T07:07:36;8.43;;;3.37;;
31438;SDS011;18062;48.872;9.220;2023-10-13T07:10:03;4.53;;;3.30;;
31438;SDS011;18062;48.872;9.220;2023-10-13T07:12:33;5.83;;;3.13;;
31438;SDS011;18062;48.872;9.220;2023-10-13T07:14:59;5.73;;;3.40;;
31438;SDS011;18062;48.872;9.220;2023-10-13T07:17:35;4.53;;;2.90;;
31438;SDS011;18062;48.872;9.220;2023-10-13T07:20:04;8.00;;;3.37;;
31438;SDS011;18062;48.872;9.220;2023-10-13T07:22:40;7.83;;;3.07;;
31438;SDS011;18062;48.872;9.220;2023-10-13T07:25:10;6.87;;;3.13;;
31438;SDS011;18062;48.872;9.220;2023-10-13T07:27:48;5.60;;;3.00;;
31438;SDS011;18062;48.872;9.220;2023-10-13T07:30:14;4.10;;;3.13;;
31438;SDS011;18062;48.872;9.220;2023-10-13T07:32:45;4.57;;;3.20;;
31438;SDS011;18062;48.872;9.220;2023-10-13T07:35:14;4.90;;;3.40;;
31438;SDS011;18062;48.872;9.220;2023-10-13T07:37:42;11.57;;;3.20;;
31438;SDS011;18062;48.872;9.220;2023-10-13T07:40:08;5.73;;;2.93;;
31438;SDS011;18062;48.872;9.220;2023-10-13T07:43:00;4.47;;;2.73;;
31438;SDS011;18062;48.872;9.220;2023-10-13T07:45:26;5.23;;;2.77;;
31438;SDS011;18062;48.872;9.220;2023-10-13T07:48:01;3.20;;;2.87;;
31438;SDS011;18062;48.872;9.220;2023-10-13T07:50:32;4.10;;;2.90;;
31438;SDS011;18062;48.872;9.220;2023-10-13T07:52:59;8.60;;;3.30;;
31438;SDS011;18062;48.872;9.220;2023-10-13T07:55:48;6.23;;;3.30;;
31438;SDS011;18062;48.872;9.220;2023-10-13T07:58:21;5.57;;;3.00;;
31438;SDS011;18062;48.872;9.220;2023-10-13T08:00:51;5.17;;;2.77;;
31438;SDS011;18062;48.872;9.220;2023-10-13T08:03:40;7.60;;;3.17;;
31438;SDS011;18062;48.872;9.220;2023-10-13T08:06:15;3.57;;;2.50;;
31438;SDS011;18062;48.872;9.220;2023-10-13T08:08:56;4.23;;;2.50;;
31438;SDS011;18062;48.872;9.220;2023-10-13T08:11:32;3.67;;;2.80;;
31438;SDS011;18062;48.872;9.220;2023-10-13T08:14:08;6.53;;;3.13;;
31438;SDS011;18062;48.872;9.220;2023-10-13T08:16:42;4.00;;;2.70;;
31438;SDS011;18062;48.872;9.220;2023-10-13T08:19:18;4.47;;;3.00;;
31438;SDS011;18062;48.872;9.220;2023-10-13T08:21:48;5.77;;;3.03;;
31438;SDS011;18062;48.872;9.220;2023-10-13T08:24:16;4.97;;;3.10;;
31438;SDS011;18062;48.872;9.220;2023-10-13T08:26:50;7.00;;;3.20;;
31438;SDS011;18062;48.872;9.220;2023-10-13T08:29:22;4.17;;;2.83;;
31438;SDS011;18062;48.872;9.220;2023-10-13T08:31:49;3.50;;;2.93;;
31438;SDS011;18062;48.872;9.220;2023-10-13T08:34:36;10.43;;;3.13;;
31438;SDS011;18062;48.872;9.220;2023-10-13T08:37:08;6.30;;;2.70;;
31438;SDS011;18062;48.872;9.220;2023-10-13T08:39:54;5.17;;;2.50;;
31438;SDS011;18062;48.872;9.220;2023-10-13T08:42:28;5.17;;;2.90;;
31438;SDS011;18062;48.872;9.220;2023-10-13T08:47:46;5.80;;;2.50;;
31438;SDS011;18062;48.872;9.220;2023-10-13T08:50:19;3.42;;;2.47;;
31438;SDS011;18062;48.872;9.220;2023-10-13T08:53:07;4.25;;;3.00;;
31438;SDS011;18062;48.872;9.220;2023-10-13T08:58:30;5.35;;;2.70;;
31438;SDS011;18062;48.872;9.220;2023-10-13T09:01:15;6.88;;;3.10;;
31438;SDS011;18062;48.872;9.220;2023-10-13T09:04:07;6.65;;;2.85;;
31438;SDS011;18062;48.872;9.220;2023-10-13T09:06:47;4.28;;;2.50;;
31438;SDS011;18062;48.872;9.220;2023-10-13T09:09:32;3.35;;;2.45;;
31438;SDS011;18062;48.872;9.220;2023-10-13T09:12:23;4.03;;;2.75;;
31438;SDS011;18062;48.872;9.220;2023-10-13T09:15:05;9.57;;;2.88;;
31438;SDS011;18062;48.872;9.220;2023-10-13T09:17:46;7.35;;;2.95;;
31438;SDS011;18062;48.872;9.220;2023-10-13T09:20:15;3.97;;;2.47;;
31438;SDS011;18062;48.872;9.220;2023-10-13T09:22:50;5.55;;;2.42;;
31438;SDS011;18062;48.872;9.220;2023-10-13T09:25:32;5.72;;;3.03;;
31438;SDS011;18062;48.872;9.220;2023-10-13T09:28:00;3.78;;;2.45;;
31438;SDS011;18062;48.872;9.220;2023-10-13T09:30:27;4.22;;;2.67;;
31438;SDS011;18062;48.872;9.220;2023-10-13T09:33:02;3.03;;;2.42;;
31438;SDS011;18062;48.872;9.220;2023-10-13T09:35:33;4.95;;;2.70;;
31438;SDS011;18062;48.872;9.220;2023-10-13T09:38:02;4.75;;;2.50;;
31438;SDS011;18062;48.872;9.220;2023-10-13T09:40:28;6.38;;;2.55;;
31438;SDS011;18062;48.872;9.220;2023-10-13T09:42:58;5.30;;;2.40;;
31438;SDS011;18062;48.872;9.220;2023-10-13T09:45:31;3.58;;;2.28;;
31438;SDS011;18062;48.872;9.220;2023-10-13T09:48:26;3.63;;;2.47;;
31438;SDS011;18062;48.872;9.220;2023-10-13T09:50:58;4.47;;;2.55;;
31438;SDS011;18062;48.872;9.220;2023-10-13T09:53:25;4.10;;;2.53;;
31438;SDS011;18062;48.872;9.220;2023-10-13T09:55:53;6.40;;;2.53;;
31438;SDS011;18062;48.872;9.220;2023-10-13T09:58:25;2.70;;;2.47;;
31438;SDS011;18062;48.872;9.220;2023-10-13T10:00:59;4.28;;;2.83;;
31438;SDS011;18062;48.872;9.220;2023-10-13T10:03:47;5.50;;;2.50;;
31438;SDS011;18062;48.872;9.220;2023-10-13T10:06:32;4.95;;;2.35;;
31438;SDS011;18062;48.872;9.220;2023-10-13T10:09:07;4.40;;;2.60;;
31438;SDS011;18062;48.872;9.220;2023-10-13T10:14:21;3.95;;;2.70;;
31438;SDS011;18062;48.872;9.220;2023-10-13T10:19:25;3.97;;;2.30;;
31438;SDS011;18062;48.872;9.220;2023-10-13T10:22:01;3.55;;;2.28;;
31438;SDS011;18062;48.872;9.220;2023-10-13T10:24:43;3.50;;;2.25;;
31438;SDS011;18062;48.872;9.220;2023-10-13T10:27:11;3.92;;;2.35;;
31438;SDS011;18062;48.872;9.220;2023-10-13T10:29:40;4.05;;;2.17;;
31438;SDS011;18062;48.872;9.220;2023-10-13T10:32:13;4.53;;;2.30;;
31438;SDS011;18062;48.872;9.220;2023-10-13T10:34:39;6.43;;;2.38;;
31438;SDS011;18062;48.872;9.220;2023-10-13T10:37:05;3.22;;;2.38;;
31438;SDS011;18062;48.872;9.220;2023-10-13T10:39:37;4.05;;;2.30;;
31438;SDS011;18062;48.872;9.220;2023-10-13T10:42:14;4.43;;;2.13;;
31438;SDS011;18062;48.872;9.220;2023-10-13T10:44:41;3.08;;;2.10;;
31438;SDS011;18062;48.872;9.220;2023-10-13T10:47:13;3.65;;;2.20;;
31438;SDS011;18062;48.872;9.220;2023-10-13T10:50:03;2.33;;;2.13;;
31438;SDS011;18062;48.872;9.220;2023-10-13T10:52:43;6.63;;;1.80;;
31438;SDS011;18062;48.872;9.220;2023-10-13T10:55:09;6.45;;;2.40;;
31438;SDS011;18062;48.872;9.220;2023-10-13T10:57:44;3.67;;;2.40;;
31438;SDS011;18062;48.872;9.220;2023-10-13T11:00:20;5.57;;;2.55;;
31438;SDS011;18062;48.872;9.220;2023-10-13T11:02:56;2.40;;;2.20;;
31438;SDS011;18062;48.872;9.220;2023-10-13T11:05:23;2.97;;;2.30;;
31438;SDS011;18062;48.872;9.220;2023-10-13T11:07:57;5.00;;;2.47;;
31438;SDS011;18062;48.872;9.220;2023-10-13T11:10:23;3.80;;;2.10;;
31438;SDS011;18062;48.872;9.220;2023-10-13T11:13:00;3.08;;;1.90;;
31438;SDS011;18062;48.872;9.220;2023-10-13T11:15:42;3.10;;;2.10;;
31438;SDS011;18062;48.872;9.220;2023-10-13T11:18:09;4.72;;;2.28;;
31438;SDS011;18062;48.872;9.220;2023-10-13T11:20:41;6.63;;;2.15;;
31438;SDS011;18062;48.872;9.220;2023-10-13T11:23:13;5.00;;;2.20;;
31438;SDS011;18062;48.872;9.220;2023-10-13T11:25:40;6.38;;;2.00;;
31438;SDS011;18062;48.872;9.220;2023-10-13T11:28:13;7.05;;;4.20;;
31438;SDS011;18062;48.872;9.220;2023-10-13T11:30:43;3.40;;;2.40;;
31438;SDS011;18062;48.872;9.220;2023-10-13T11:33:14;4.25;;;2.42;;
31438;SDS011;18062;48.872;9.220;2023-10-13T11:35:43;5.85;;;2.65;;
31438;SDS011;18062;48.872;9.220;2023-10-13T11:38:25;7.25;;;2.22;;
31438;SDS011;18062;48.872;9.220;2023-10-13T11:40:58;3.25;;;2.30;;
31438;SDS011;18062;48.872;9.220;2023-10-13T11:43:37;9.10;;;2.42;;
31438;SDS011;18062;48.872;9.220;2023-10-13T11:46:07;2.50;;;2.30;;
31438;SDS011;18062;48.872;9.220;2023-10-13T11:48:33;5.30;;;2.17;;
31438;SDS011;18062;48.872;9.220;2023-10-13T11:51:02;5.28;;;2.35;;
31438;SDS011;18062;48.872;9.220;2023-10-13T11:53:49;4.57;;;2.33;;
31438;SDS011;18062;48.872;9.220;2023-10-13T11:56:17;4.43;;;4.03;;
31438;SDS011;18062;48.872;9.220;2023-10-13T11:58:45;5.15;;;4.60;;
31438;SDS011;18062;48.872;9.220;2023-10-13T12:01:12;2.80;;;2.30;;
31438;SDS011;18062;48.872;9.220;2023-10-13T12:03:45;4.45;;;2.20;;
31438;SDS011;18062;48.872;9.220;2023-10-13T12:06:30;3.45;;;2.47;;
31438;SDS011;18062;48.872;9.220;2023-10-13T12:08:59;2.60;;;2.00;;
31438;SDS011;18062;48.872;9.220;2023-10-13T12:11:39;4.50;;;2.00;;
31438;SDS011;18062;48.872;9.220;2023-10-13T12:14:09;3.13;;;2.30;;
31438;SDS011;18062;48.872;9.220;2023-10-13T12:16:49;4.82;;;2.20;;
31438;SDS011;18062;48.872;9.220;2023-10-13T12:19:16;4.40;;;2.38;;
31438;SDS011;18062;48.872;9.220;2023-10-13T12:21:43;3.65;;;2.33;;
31438;SDS011;18062;48.872;9.220;2023-10-13T12:24:10;4.22;;;2.08;;
31438;SDS011;18062;48.872;9.220;2023-10-13T12:26:59;3.88;;;2.30;;
31438;SDS011;18062;48.872;9.220;2023-10-13T12:29:25;4.30;;;2.38;;
31438;SDS011;18062;48.872;9.220;2023-10-13T12:31:55;4.68;;;4.15;;
31438;SDS011;18062;48.872;9.220;2023-10-13T12:34:34;4.28;;;2.30;;
31438;SDS011;18062;48.872;9.220;2023-10-13T12:37:19;6.13;;;2.25;;
31438;SDS011;18062;48.872;9.220;2023-10-13T12:42:48;3.30;;;2.00;;
31438;SDS011;18062;48.872;9.220;2023-10-13T12:45:32;2.30;;;2.10;;
31438;SDS011;18062;48.872;9.220;2023-10-13T12:48:17;3.55;;;2.13;;
31438;SDS011;18062;48.872;9.220;2023-10-13T12:51:02;4.28;;;2.25;;
31438;SDS011;18062;48.872;9.220;2023-10-13T12:53:47;3.40;;;2.28;;
31438;SDS011;18062;48.872;9.220;2023-10-13T12:56:13;4.10;;;2.58;;
31438;SDS011;18062;48.872;9.220;2023-10-13T12:58:40;3.22;;;2.10;;
31438;SDS011;18062;48.872;9.220;2023-10-13T13:01:07;3.42;;;2.10;;
31438;SDS011;18062;48.872;9.220;2023-10-13T13:03:33;4.90;;;2.20;;
31438;SDS011;18062;48.872;9.220;2023-10-13T13:05:59;3.83;;;2.30;;
31438;SDS011;18062;48.872;9.220;2023-10-13T13:08:32;2.85;;;2.25;;
31438;SDS011;18062;48.872;9.220;2023-10-13T13:11:00;3.38;;;2.42;;
31438;SDS011;18062;48.872;9.220;2023-10-13T13:13:29;3.28;;;2.35;;
31438;SDS011;18062;48.872;9.220;2023-10-13T13:15:56;4.13;;;2.50;;
31438;SDS011;18062;48.872;9.220;2023-10-13T13:18:22;3.20;;;2.33;;
31438;SDS011;18062;48.872;9.220;2023-10-13T13:20:48;4.43;;;2.03;;
31438;SDS011;18062;48.872;9.220;2023-10-13T13:23:21;2.90;;;2.08;;
31438;SDS011;18062;48.872;9.220;2023-10-13T13:25:56;4.22;;;2.50;;
31438;SDS011;18062;48.872;9.220;2023-10-13T13:28:22;3.20;;;2.20;;
31438;SDS011;18062;48.872;9.220;2023-10-13T13:30:49;6.38;;;2.40;;
31438;SDS011;18062;48.872;9.220;2023-10-13T13:33:19;3.63;;;2.40;;
31438;SDS011;18062;48.872;9.220;2023-10-13T13:35:52;4.43;;;2.33;;
31438;SDS011;18062;48.872;9.220;2023-10-13T13:38:18;2.60;;;2.40;;
31438;SDS011;18062;48.872;9.220;2023-10-13T13:40:48;5.25;;;2.10;;
31438;SDS011;18062;48.872;9.220;2023-10-13T13:43:14;4.90;;;2.28;;
31438;SDS011;18062;48.872;9.220;2023-10-13T13:45:59;2.45;;;2.00;;
31438;SDS011;18062;48.872;9.220;2023-10-13T13:48:28;6.25;;;2.58;;
31438;SDS011;18062;48.872;9.220;2023-10-13T13:50:56;2.78;;;1.88;;
31438;SDS011;18062;48.872;9.220;2023-10-13T13:53:29;3.20;;;2.10;;
31438;SDS011;18062;48.872;9.220;2023-10-13T13:56:02;5.85;;;2.10;;
31438;SDS011;18062;48.872;9.220;2023-10-13T13:58:29;3.20;;;2.47;;
31438;SDS011;18062;48.872;9.220;2023-10-13T14:01:01;4.00;;;2.50;;
31438;SDS011;18062;48.872;9.220;2023-10-13T14:03:40;3.13;;;2.00;;
31438;SDS011;18062;48.872;9.220;2023-10-13T14:09:00;3.63;;;1.80;;
31438;SDS011;18062;48.872;9.220;2023-10-13T14:11:39;5.28;;;2.28;;
31438;SDS011;18062;48.872;9.220;2023-10-13T14:14:06;3.67;;;2.08;;
31438;SDS011;18062;48.872;9.220;2023-10-13T14:16:41;3.55;;;2.13;;
31438;SDS011;18062;48.872;9.220;2023-10-13T14:19:12;2.55;;;1.98;;
31438;SDS011;18062;48.872;9.220;2023-10-13T14:21:57;4.95;;;2.40;;
31438;SDS011;18062;48.872;9.220;2023-10-13T14:24:25;2.75;;;2.17;;
31438;SDS011;18062;48.872;9.220;2023-10-13T14:26:58;4.28;;;2.25;;
31438;SDS011;18062;48.872;9.220;2023-10-13T14:29:32;3.50;;;2.72;;
31438;SDS011;18062;48.872;9.220;2023-10-13T14:31:58;3.83;;;2.50;;
31438;SDS011;18062;48.872;9.220;2023-10-13T14:34:24;4.60;;;2.10;;
31438;SDS011;18062;48.872;9.220;2023-10-13T14:36:51;5.65;;;2.13;;
31438;SDS011;18062;48.872;9.220;2023-10-13T14:39:19;5.22;;;2.08;;
31438;SDS011;18062;48.872;9.220;2023-10-13T14:41:46;4.50;;;2.53;;
31438;SDS011;18062;48.872;9.220;2023-10-13T14:44:13;3.97;;;3.20;;
31438;SDS011;18062;48.872;9.220;2023-10-13T14:46:39;8.68;;;4.43;;
31438;SDS011;18062;48.872;9.220;2023-10-13T14:49:05;5.00;;;2.40;;
31438;SDS011;18062;48.872;9.220;2023-10-13T14:51:32;2.58;;;2.20;;
31438;SDS011;18062;48.872;9.220;2023-10-13T14:53:58;3.85;;;2.25;;
31438;SDS011;18062;48.872;9.220;2023-10-13T14:56:25;2.20;;;2.00;;
31438;SDS011;18062;48.872;9.220;2023-10-13T14:58:52;4.07;;;2.15;;
31438;SDS011;18062;48.872;9.220;2023-10-13T15:01:18;2.10;;;1.90;;
31438;SDS011;18062;48.872;9.220;2023-10-13T15:03:48;6.45;;;2.60;;
31438;SDS011;18062;48.872;9.220;2023-10-13T15:06:18;3.17;;;2.13;;
31438;SDS011;18062;48.872;9.220;2023-10-13T15:08:54;5.60;;;2.10;;
31438;SDS011;18062;48.872;9.220;2023-10-13T15:11:21;2.33;;;2.13;;
31438;SDS011;18062;48.872;9.220;2023-10-13T15:13:51;9.18;;;2.30;;
31438;SDS011;18062;48.872;9.220;2023-10-13T15:16:18;4.45;;;2.10;;
31438;SDS011;18062;48.872;9.220;2023-10-13T15:18:45;5.40;;;2.28;;
31438;SDS011;18062;48.872;9.220;2023-10-13T15:21:11;4.05;;;2.00;;
31438;SDS011;18062;48.872;9.220;2023-10-13T15:23:38;3.15;;;1.90;;
31438;SDS011;18062;48.872;9.220;2023-10-13T15:26:10;2.72;;;1.90;;
31438;SDS011;18062;48.872;9.220;2023-10-13T15:28:39;4.28;;;2.25;;
31438;SDS011;18062;48.872;9.220;2023-10-13T15:31:17;3.58;;;1.70;;
31438;SDS011;18062;48.872;9.220;2023-10-13T15:33:58;2.58;;;2.13;;
31438;SDS011;18062;48.872;9.220;2023-10-13T15:36:24;3.22;;;1.90;;
31438;SDS011;18062;48.872;9.220;2023-10-13T15:38:52;3.13;;;2.10;;
31438;SDS011;18062;48.872;9.220;2023-10-13T15:41:24;3.70;;;2.00;;
31438;SDS011;18062;48.872;9.220;2023-10-13T15:43:51;2.63;;;1.92;;
31438;SDS011;18062;48.872;9.220;2023-10-13T15:46:19;2.30;;;1.80;;